»·PEaware :: N5002T KBUR-KSBA

N5002T :: KBUR-KSBA

FLIGHT INFORMATION

Flight Status: Arrived
Operator: Privately registered:
United States
More flights under this callsign
Pilot: Hunter M. (19355)
Aircraft: CESSNA 172 SKYHAWK
(C172)
More flights by this aircraft type
Origin: KBUR Bob Hope-Burbank
United States
Destination: KSBA Santa Barbara Mun
United States
More flights between these airports :: More routes between these airports
Route: +VNY3 FIM V186 DEANO V27 KWANG
File this flight plan on PilotEdge
Remarks:
Altitude:
(Current/Filed)
6,000ft
Speed:
(Current/Filed)
118kts
Departed: 12-Jan-19 12:25 PM
Arrived: 12-Jan-19 01:39 PM
Distance/Time
Traveled:
75nm/1:13
Distance/Time
To Go:
Arrived

Flight Plot

Page will automatically refresh every two minutes.

Flight plan parsing failed; only flown route is shown


Map Options




Map Legend


Flown Route
Filed Route
Departure Airport
Arrival Airport
Navaid (VOR, NDB)
Fix

Horizontal Profiles

Position Reports

Time Latitude Longitude Heading Altitude Ground
Speed
12-Jan-19 12:12 34.195958 -118.366900 181 781ft 0kts
12-Jan-19 12:13 34.195957 -118.366900 181 781ft 0kts
12-Jan-19 12:14 34.195956 -118.366900 181 781ft 0kts
12-Jan-19 12:15 34.195955 -118.366900 181 781ft 0kts
12-Jan-19 12:16 34.195954 -118.366900 181 781ft 0kts
12-Jan-19 12:17 34.195953 -118.366901 181 781ft 0kts
12-Jan-19 12:18 34.195952 -118.366901 181 781ft 0kts
12-Jan-19 12:19 34.195951 -118.366901 181 781ft 0kts
12-Jan-19 12:20 34.196430 -118.366188 5 781ft 0kts
12-Jan-19 12:21 34.196731 -118.367817 271 781ft 16kts
12-Jan-19 12:22 34.197016 -118.368955 350 781ft 0kts
12-Jan-19 12:23 34.197068 -118.368966 350 781ft 3kts
12-Jan-19 12:24 34.197867 -118.363034 91 799ft 71kts
12-Jan-19 12:25 34.195676 -118.337086 139 1501ft 86kts
12-Jan-19 12:26 34.175713 -118.355336 219 2034ft 99kts
12-Jan-19 12:28 34.155093 -118.377736 231 2677ft 96kts
12-Jan-19 12:29 34.138221 -118.399724 225 3466ft 86kts
12-Jan-19 12:30 34.135489 -118.426924 269 4094ft 81kts
12-Jan-19 12:31 34.135197 -118.454394 270 4736ft 82kts
12-Jan-19 12:32 34.132910 -118.481936 268 5321ft 82kts
12-Jan-19 12:33 34.131657 -118.509961 269 5844ft 84kts
12-Jan-19 12:34 34.130132 -118.540877 275 5993ft 92kts
12-Jan-19 12:35 34.130502 -118.572559 272 5990ft 92kts
12-Jan-19 12:36 34.130158 -118.603655 272 6013ft 93kts
12-Jan-19 12:37 34.129866 -118.635099 272 6012ft 94kts
12-Jan-19 12:38 34.129709 -118.666650 273 6014ft 94kts
12-Jan-19 12:39 34.129654 -118.698241 273 6010ft 93kts
12-Jan-19 12:40 34.129680 -118.729703 273 6014ft 93kts
12-Jan-19 12:41 34.129780 -118.761234 273 6014ft 94kts
12-Jan-19 12:42 34.129949 -118.792650 273 6017ft 93kts
12-Jan-19 12:43 34.130207 -118.824369 273 6010ft 94kts
12-Jan-19 12:44 34.130472 -118.856051 274 6009ft 94kts
12-Jan-19 12:45 34.130796 -118.887677 274 6009ft 94kts
12-Jan-19 12:46 34.131203 -118.919272 274 6009ft 94kts
12-Jan-19 12:47 34.131692 -118.950883 274 6010ft 94kts
12-Jan-19 12:48 34.132272 -118.982468 274 6012ft 94kts
12-Jan-19 12:48 34.137234 -119.006804 306 6023ft 90kts
12-Jan-19 12:49 34.148686 -119.034343 294 6011ft 92kts
12-Jan-19 12:50 34.157224 -119.063656 291 6011ft 92kts
12-Jan-19 12:51 34.165660 -119.093130 291 6009ft 92kts
12-Jan-19 12:53 34.175599 -119.127483 291 6009ft 92kts
12-Jan-19 12:54 34.185231 -119.156240 297 6009ft 92kts
12-Jan-19 12:54 34.194706 -119.179473 297 6009ft 92kts
12-Jan-19 12:55 34.205453 -119.207622 292 6009ft 92kts
12-Jan-19 12:56 34.214255 -119.236872 292 6009ft 92kts
12-Jan-19 12:57 34.223138 -119.266103 292 6009ft 92kts
12-Jan-19 12:58 34.232251 -119.295259 297 6010ft 92kts
12-Jan-19 12:59 34.243933 -119.322972 298 6009ft 92kts
12-Jan-19 13:00 34.255709 -119.350593 298 6009ft 92kts
12-Jan-19 13:01 34.267595 -119.378142 297 6010ft 92kts
12-Jan-19 13:02 34.275754 -119.407690 288 6010ft 93kts
12-Jan-19 13:03 34.282764 -119.437900 288 6009ft 93kts
12-Jan-19 13:04 34.292354 -119.466788 296 6009ft 92kts
12-Jan-19 13:05 34.303152 -119.495106 296 6008ft 92kts
12-Jan-19 13:06 34.311589 -119.524243 275 6011ft 94kts
12-Jan-19 13:07 34.312029 -119.556312 274 6000ft 95kts
12-Jan-19 13:08 34.312512 -119.588300 275 5998ft 95kts
12-Jan-19 13:09 34.313930 -119.619953 276 5982ft 97kts
12-Jan-19 13:10 34.312758 -119.652284 271 5996ft 95kts
12-Jan-19 13:11 34.311847 -119.684312 272 5995ft 95kts
12-Jan-19 13:12 34.310812 -119.716182 276 5992ft 96kts
12-Jan-19 13:13 34.312232 -119.748399 277 5998ft 93kts
12-Jan-19 13:14 34.312872 -119.779878 272 6020ft 94kts
12-Jan-19 13:15 34.313250 -119.811591 275 6023ft 94kts
12-Jan-19 13:16 34.312758 -119.843924 270 5996ft 96kts
12-Jan-19 13:17 34.313249 -119.876217 276 5990ft 94kts
12-Jan-19 13:18 34.321468 -119.907466 294 5425ft 101kts
12-Jan-19 13:19 34.329576 -119.938759 288 4777ft 96kts
12-Jan-19 13:20 34.337982 -119.969278 291 4124ft 94kts
12-Jan-19 13:21 34.344806 -119.998693 283 3932ft 87kts
12-Jan-19 13:22 34.349125 -120.026980 284 3991ft 86kts
12-Jan-19 13:23 34.354789 -120.055316 287 4011ft 87kts
12-Jan-19 13:24 34.361759 -120.083325 287 4026ft 86kts
12-Jan-19 13:25 34.367237 -120.112394 288 4000ft 88kts
12-Jan-19 13:26 34.380795 -120.126712 40 3935ft 93kts
12-Jan-19 13:27 34.398548 -120.105459 36 3868ft 92kts
12-Jan-19 13:28 34.418110 -120.083605 32 3170ft 97kts
12-Jan-19 13:29 34.420415 -120.051928 82 2523ft 93kts
12-Jan-19 13:30 34.423115 -120.022254 81 2002ft 88kts
12-Jan-19 13:31 34.424754 -119.992912 88 1699ft 80kts
12-Jan-19 13:32 34.424790 -119.966514 91 1661ft 77kts
12-Jan-19 13:33 34.426116 -119.940511 89 1472ft 76kts
12-Jan-19 13:34 34.426295 -119.916614 92 1021ft 69kts
12-Jan-19 13:35 34.427043 -119.893754 93 763ft 69kts
12-Jan-19 13:36 34.427234 -119.871516 90 360ft 62kts
12-Jan-19 13:37 34.427594 -119.851423 91 40ft 53kts
12-Jan-19 13:38 34.428161 -119.845910 60 13ft 12kts
12-Jan-19 13:39 34.428916 -119.845785 331 13ft 0kts

Navigation Log

Ident Type
Flight plan parsing failed, navigation log unavailable